createdAt,value
2022-11-30T00:01:00.254Z,101298.47
2022-11-30T00:03:26.856Z,101291.06
2022-11-30T00:05:53.461Z,101297.09
2022-11-30T00:08:19.886Z,101290.25
2022-11-30T00:10:46.430Z,101295.31
2022-11-30T00:13:12.844Z,101296.91
2022-11-30T00:15:39.318Z,101292.72
2022-11-30T00:18:05.844Z,101291.81
2022-11-30T00:20:32.791Z,101293.75
2022-11-30T00:22:59.215Z,101303.47
2022-11-30T00:25:25.883Z,101308.66
2022-11-30T00:27:52.694Z,101302.22
2022-11-30T00:30:19.219Z,101309.00
2022-11-30T00:32:45.757Z,101307.25
2022-11-30T00:35:12.250Z,101299.31
2022-11-30T00:37:38.792Z,101293.38
2022-11-30T00:40:06.352Z,101297.47
2022-11-30T00:42:32.821Z,101297.97
2022-11-30T00:44:59.237Z,101297.59
2022-11-30T00:47:25.675Z,101284.81
2022-11-30T00:49:52.076Z,101293.34
2022-11-30T00:52:18.515Z,101301.69
2022-11-30T00:54:45.128Z,101297.44
2022-11-30T00:57:11.731Z,101292.03
2022-11-30T00:59:38.131Z,101295.59
2022-11-30T01:02:04.615Z,101294.09
2022-11-30T01:04:31.078Z,101286.69
2022-11-30T01:06:57.497Z,101293.53
2022-11-30T01:09:23.935Z,101296.69
2022-11-30T01:11:50.358Z,101291.31
2022-11-30T01:14:16.857Z,101302.03
2022-11-30T01:16:43.430Z,101294.41
2022-11-30T01:19:09.857Z,101294.47
2022-11-30T01:21:36.272Z,101292.75
2022-11-30T01:24:02.741Z,101303.28
2022-11-30T01:26:29.152Z,101306.91
2022-11-30T01:28:56.517Z,101302.19
2022-11-30T01:31:24.709Z,101298.63
2022-11-30T01:33:53.023Z,101302.19
2022-11-30T01:36:22.208Z,101302.47
2022-11-30T01:38:51.268Z,101303.75
2022-11-30T01:41:22.207Z,101294.94
2022-11-30T01:43:52.057Z,101298.81
2022-11-30T01:46:18.510Z,101302.50
2022-11-30T01:48:45.871Z,101297.72
2022-11-30T01:51:12.399Z,101299.91
2022-11-30T01:53:38.830Z,101300.78
2022-11-30T01:56:05.580Z,101306.75
2022-11-30T01:58:32.389Z,101312.34
2022-11-30T02:00:59.749Z,101304.69
2022-11-30T02:03:39.767Z,101301.16
2022-11-30T02:06:06.492Z,101296.72
2022-11-30T02:08:33.260Z,101308.31
2022-11-30T02:11:04.375Z,101306.56
2022-11-30T02:13:48.717Z,101303.38
2022-11-30T02:16:52.710Z,101302.72
2022-11-30T02:19:32.408Z,101300.09
2022-11-30T02:21:58.812Z,101297.88
2022-11-30T02:24:28.032Z,101302.00
2022-11-30T02:27:17.688Z,101302.22
2022-11-30T02:29:49.060Z,101297.16
2022-11-30T02:32:23.008Z,101300.03
2022-11-30T02:34:51.778Z,101292.31
2022-11-30T02:37:19.518Z,101298.06
2022-11-30T02:39:45.967Z,101295.28
2022-11-30T02:42:14.016Z,101294.81
2022-11-30T02:44:42.694Z,101297.63
2022-11-30T02:47:22.394Z,101289.44
2022-11-30T02:50:10.940Z,101296.19
2022-11-30T02:52:37.520Z,101302.34
2022-11-30T02:55:09.341Z,101286.41
2022-11-30T02:57:36.184Z,101298.50
2022-11-30T03:00:07.169Z,101298.88
2022-11-30T03:02:34.242Z,101297.63
2022-11-30T03:05:00.681Z,101294.59
2022-11-30T03:07:27.197Z,101300.28
2022-11-30T03:09:53.728Z,101308.38
2022-11-30T03:12:20.164Z,101305.06
2022-11-30T03:14:46.861Z,101307.81
2022-11-30T03:17:13.475Z,101304.97
2022-11-30T03:19:39.953Z,101314.22
2022-11-30T03:22:06.520Z,101313.59
2022-11-30T03:24:32.980Z,101315.47
2022-11-30T03:26:59.403Z,101308.00
2022-11-30T03:29:25.829Z,101310.91
2022-11-30T03:31:52.262Z,101306.50
2022-11-30T03:34:18.769Z,101309.16
2022-11-30T03:36:45.205Z,101311.03
2022-11-30T03:39:11.654Z,101308.53
2022-11-30T03:41:38.065Z,101319.34
2022-11-30T03:44:04.498Z,101319.78
2022-11-30T03:46:30.990Z,101319.97
2022-11-30T03:48:57.440Z,101324.75
2022-11-30T03:51:23.905Z,101325.47
2022-11-30T03:53:50.353Z,101325.16
2022-11-30T03:56:16.862Z,101325.19
2022-11-30T03:58:43.329Z,101325.16
2022-11-30T04:01:15.665Z,101330.03
2022-11-30T04:03:42.939Z,101332.34
2022-11-30T04:06:11.884Z,101333.13
2022-11-30T04:08:39.079Z,101333.44
2022-11-30T04:11:06.346Z,101337.00
2022-11-30T04:13:34.127Z,101337.88
2022-11-30T04:16:00.859Z,101337.19
2022-11-30T04:18:29.890Z,101340.72
2022-11-30T04:20:58.573Z,101342.19
2022-11-30T04:23:26.457Z,101333.16
2022-11-30T04:25:52.868Z,101338.59
2022-11-30T04:28:20.108Z,101336.66
2022-11-30T04:30:46.912Z,101337.97
2022-11-30T04:33:15.500Z,101345.38
2022-11-30T04:35:47.079Z,101337.25
2022-11-30T04:38:13.576Z,101345.81
2022-11-30T04:40:41.078Z,101336.81
2022-11-30T04:43:08.636Z,101354.09
2022-11-30T04:45:35.674Z,101338.06
2022-11-30T04:48:02.917Z,101339.00
2022-11-30T04:50:29.530Z,101331.84
2022-11-30T04:52:56.616Z,101341.97
2022-11-30T04:55:23.452Z,101341.28
2022-11-30T04:57:49.954Z,101348.44
2022-11-30T05:00:18.038Z,101359.31
2022-11-30T05:02:50.705Z,101338.69
2022-11-30T05:05:19.108Z,101342.25
2022-11-30T05:07:49.994Z,101335.22
2022-11-30T05:10:16.904Z,101344.34
2022-11-30T05:12:43.440Z,101350.31
2022-11-30T05:15:10.325Z,101352.97
2022-11-30T05:17:36.745Z,101348.59
2022-11-30T05:20:03.457Z,101354.63
2022-11-30T05:22:29.982Z,101362.38
2022-11-30T05:24:56.419Z,101352.25
2022-11-30T05:27:23.017Z,101368.31
2022-11-30T05:29:49.574Z,101357.78
2022-11-30T05:32:16.000Z,101356.97
2022-11-30T05:34:50.526Z,101366.97
2022-11-30T05:37:18.380Z,101360.03
2022-11-30T05:39:44.927Z,101360.78
2022-11-30T05:42:11.604Z,101366.53
2022-11-30T05:44:38.020Z,101373.19
2022-11-30T05:47:04.562Z,101372.56
2022-11-30T05:49:31.021Z,101376.44
2022-11-30T05:51:57.442Z,101373.56
2022-11-30T05:54:23.867Z,101384.00
2022-11-30T05:56:54.701Z,101378.22
2022-11-30T06:02:03.707Z,101383.66
2022-11-30T06:04:30.424Z,101380.28
2022-11-30T06:06:56.891Z,101392.84
2022-11-30T06:09:23.532Z,101379.63
2022-11-30T06:11:50.340Z,101391.53
2022-11-30T06:14:17.097Z,101389.13
2022-11-30T06:16:43.588Z,101384.88
2022-11-30T06:19:10.053Z,101391.16
2022-11-30T06:21:36.450Z,101384.97
2022-11-30T06:24:03.088Z,101395.59
2022-11-30T06:26:29.549Z,101386.59
2022-11-30T06:28:56.005Z,101389.88
2022-11-30T06:31:22.591Z,101396.16
2022-11-30T06:33:49.223Z,101403.41
2022-11-30T06:36:21.605Z,101398.53
2022-11-30T06:38:48.109Z,101408.00
2022-11-30T06:41:14.548Z,101412.59
2022-11-30T06:43:41.183Z,101399.56
2022-11-30T06:46:07.978Z,101410.31
2022-11-30T06:48:35.054Z,101410.41
2022-11-30T06:51:04.546Z,101417.56
2022-11-30T06:53:31.748Z,101418.22
2022-11-30T06:55:58.168Z,101420.63
2022-11-30T06:58:24.636Z,101421.19
2022-11-30T07:00:51.105Z,101433.78
2022-11-30T07:03:17.614Z,101429.13
2022-11-30T07:05:46.082Z,101430.03
2022-11-30T07:08:14.373Z,101426.69
2022-11-30T07:10:45.620Z,101433.31
2022-11-30T07:13:18.094Z,101437.47
2022-11-30T07:15:45.250Z,101433.97
2022-11-30T07:18:12.436Z,101443.06
2022-11-30T07:20:39.749Z,101431.16
2022-11-30T07:23:25.381Z,101444.16
2022-11-30T07:26:09.236Z,101440.41
2022-11-30T07:28:37.856Z,101436.31
2022-11-30T07:31:16.843Z,101438.66
2022-11-30T07:33:44.083Z,101446.50
2022-11-30T07:36:11.245Z,101437.97
2022-11-30T07:38:38.485Z,101450.63
2022-11-30T07:41:05.395Z,101452.53
2022-11-30T07:43:33.037Z,101455.75
2022-11-30T07:46:01.200Z,101460.88
2022-11-30T07:48:28.315Z,101458.16
2022-11-30T07:51:01.451Z,101455.88
2022-11-30T07:53:28.352Z,101445.78
2022-11-30T07:55:56.963Z,101454.69
2022-11-30T07:58:23.518Z,101466.56
2022-11-30T08:00:49.997Z,101464.22
2022-11-30T08:03:16.560Z,101455.19
2022-11-30T08:05:43.080Z,101465.63
2022-11-30T08:08:09.507Z,101458.34
2022-11-30T08:10:35.985Z,101461.56
2022-11-30T08:13:02.402Z,101462.16
2022-11-30T08:15:32.436Z,101463.28
2022-11-30T08:18:05.184Z,101463.03
2022-11-30T08:20:31.621Z,101466.69
2022-11-30T08:22:58.807Z,101463.28
2022-11-30T08:25:25.236Z,101468.72
2022-11-30T08:27:51.706Z,101470.47
2022-11-30T08:30:18.188Z,101463.81
2022-11-30T08:32:44.653Z,101472.50
2022-11-30T08:35:11.072Z,101481.94
2022-11-30T08:37:37.965Z,101482.69
2022-11-30T08:40:05.984Z,101482.97
2022-11-30T08:42:32.405Z,101471.47
2022-11-30T08:44:59.159Z,101483.84
2022-11-30T08:47:25.789Z,101473.72
2022-11-30T08:49:52.705Z,101486.03
2022-11-30T08:52:19.362Z,101476.28
2022-11-30T08:54:48.035Z,101473.06
2022-11-30T08:57:17.442Z,101483.97
2022-11-30T08:59:44.291Z,101487.13
2022-11-30T09:02:13.272Z,101493.63
2022-11-30T09:04:39.803Z,101495.59
2022-11-30T09:07:06.282Z,101492.53
2022-11-30T09:09:32.807Z,101496.28
2022-11-30T09:11:59.334Z,101499.59
2022-11-30T09:14:25.781Z,101493.56
2022-11-30T09:16:53.897Z,101494.56
2022-11-30T09:19:20.662Z,101489.78
2022-11-30T09:21:51.811Z,101491.75
2022-11-30T09:24:19.108Z,101500.13
2022-11-30T09:26:45.603Z,101501.41
2022-11-30T09:29:12.078Z,101503.56
2022-11-30T09:31:38.496Z,101495.13
2022-11-30T09:34:05.315Z,101494.25
2022-11-30T09:36:33.405Z,101508.38
2022-11-30T09:38:59.906Z,101496.56
2022-11-30T09:41:50.727Z,101504.88
2022-11-30T09:44:31.775Z,101501.66
2022-11-30T09:47:33.072Z,101501.88
2022-11-30T09:50:04.879Z,101496.69
2022-11-30T09:52:39.083Z,101500.06
2022-11-30T09:55:09.497Z,101495.53
2022-11-30T09:57:58.496Z,101496.03
2022-11-30T10:00:25.231Z,101496.75
2022-11-30T10:02:53.997Z,101495.53
2022-11-30T10:05:29.478Z,101502.38
2022-11-30T10:08:18.948Z,101494.56
2022-11-30T10:11:07.577Z,101491.03
2022-11-30T10:14:02.845Z,101484.00
2022-11-30T10:16:35.407Z,101490.53
2022-11-30T10:19:31.168Z,101494.16
2022-11-30T10:22:19.176Z,101492.41
2022-11-30T10:25:12.351Z,101489.81
2022-11-30T10:27:53.755Z,101478.31
2022-11-30T10:30:22.957Z,101487.16
2022-11-30T10:32:53.479Z,101486.53
2022-11-30T10:35:29.739Z,101483.72
2022-11-30T10:37:58.281Z,101479.59
2022-11-30T10:40:41.299Z,101494.03
2022-11-30T10:43:37.478Z,101485.69
2022-11-30T10:46:05.164Z,101502.94
2022-11-30T10:48:40.584Z,101495.09
2022-11-30T10:51:09.351Z,101501.44
2022-11-30T10:53:36.702Z,101492.88
2022-11-30T10:56:10.857Z,101489.53
2022-11-30T10:58:58.951Z,101497.03
2022-11-30T11:01:44.074Z,101492.44
2022-11-30T11:04:23.200Z,101488.00
2022-11-30T11:06:56.108Z,101489.03
2022-11-30T11:09:36.715Z,101487.63
2022-11-30T11:12:07.106Z,101492.47
2022-11-30T11:14:37.979Z,101491.63
2022-11-30T11:17:20.178Z,101498.59
2022-11-30T11:19:49.075Z,101496.28
2022-11-30T11:22:24.359Z,101493.84
2022-11-30T11:24:56.142Z,101510.34
2022-11-30T11:27:27.525Z,101512.97
2022-11-30T11:30:07.959Z,101511.16
2022-11-30T11:32:35.179Z,101512.03
2022-11-30T11:35:01.742Z,101512.72
2022-11-30T11:37:31.471Z,101513.31
2022-11-30T11:40:01.127Z,101500.69
2022-11-30T11:42:34.778Z,101517.34
2022-11-30T11:45:02.950Z,101515.13
2022-11-30T11:47:40.501Z,101520.06
2022-11-30T11:50:50.351Z,101510.09
2022-11-30T11:53:23.437Z,101522.34
2022-11-30T11:56:25.371Z,101515.78
2022-11-30T11:59:05.290Z,101522.44
2022-11-30T12:02:01.037Z,101518.19
2022-11-30T12:04:48.231Z,101528.66
2022-11-30T12:07:33.049Z,101528.28
2022-11-30T12:10:16.499Z,101517.03
2022-11-30T12:12:51.987Z,101510.19
2022-11-30T12:15:31.199Z,101513.91
2022-11-30T12:18:12.458Z,101517.56
2022-11-30T12:21:13.409Z,101523.97
2022-11-30T12:24:04.616Z,101529.69
2022-11-30T12:26:44.654Z,101526.22
2022-11-30T12:29:35.175Z,101527.38
2022-11-30T12:32:24.888Z,101525.13
2022-11-30T12:35:09.912Z,101532.09
2022-11-30T12:37:47.465Z,101537.09
2022-11-30T12:40:32.729Z,101525.69
2022-11-30T12:43:20.283Z,101534.34
2022-11-30T12:45:48.410Z,101524.16
2022-11-30T12:48:28.635Z,101538.22
2022-11-30T12:51:13.142Z,101530.81
2022-11-30T12:53:46.382Z,101528.91
2022-11-30T12:56:45.726Z,101530.88
2022-11-30T12:59:12.650Z,101542.94
2022-11-30T13:02:11.807Z,101542.28
2022-11-30T13:04:43.892Z,101542.81
2022-11-30T13:07:37.395Z,101545.41
2022-11-30T13:10:18.599Z,101546.69
2022-11-30T13:12:51.118Z,101538.66
2022-11-30T13:15:35.957Z,101552.63
2022-11-30T13:18:03.588Z,101538.72
2022-11-30T13:21:06.157Z,101547.47
2022-11-30T13:23:44.838Z,101545.72
2022-11-30T13:26:27.347Z,101546.97
2022-11-30T13:29:14.090Z,101551.13
2022-11-30T13:31:47.464Z,101546.72
2022-11-30T13:34:26.649Z,101546.38
2022-11-30T13:37:03.033Z,101538.22
2022-11-30T13:39:56.096Z,101544.34
2022-11-30T13:42:40.681Z,101554.72
2022-11-30T13:45:12.953Z,101541.09
2022-11-30T13:48:00.237Z,101532.50
2022-11-30T13:50:32.473Z,101538.28
2022-11-30T13:52:59.139Z,101540.56
2022-11-30T13:55:52.048Z,101541.44
2022-11-30T13:58:19.748Z,101532.59
2022-11-30T14:00:48.112Z,101532.47
2022-11-30T14:03:20.303Z,101537.63
2022-11-30T14:05:51.376Z,101529.00
2022-11-30T14:08:23.585Z,101543.09
2022-11-30T14:10:52.083Z,101536.34
2022-11-30T14:13:22.657Z,101536.28
2022-11-30T14:16:00.652Z,101547.31
2022-11-30T14:18:29.859Z,101548.22
2022-11-30T14:21:29.278Z,101558.41
2022-11-30T14:24:03.880Z,101548.84
2022-11-30T14:26:36.979Z,101552.69
2022-11-30T14:29:12.708Z,101549.09
2022-11-30T14:31:54.374Z,101551.72
2022-11-30T14:34:31.953Z,101562.78
2022-11-30T14:37:03.150Z,101558.69
2022-11-30T14:39:38.173Z,101556.25
2022-11-30T14:42:06.479Z,101554.22
2022-11-30T14:44:39.327Z,101553.69
2022-11-30T14:47:27.891Z,101561.38
2022-11-30T14:49:57.015Z,101566.13
2022-11-30T14:52:50.784Z,101567.31
2022-11-30T14:55:50.322Z,101569.44
2022-11-30T14:58:40.338Z,101569.44
2022-11-30T15:01:23.851Z,101575.84
2022-11-30T15:03:53.521Z,101563.94
2022-11-30T15:06:25.879Z,101575.06
2022-11-30T15:08:55.311Z,101571.50
2022-11-30T15:14:09.311Z,101583.59
2022-11-30T15:16:36.165Z,101588.13
2022-11-30T15:19:38.342Z,101585.00
2022-11-30T15:22:04.782Z,101588.44
2022-11-30T15:24:31.231Z,101591.59
2022-11-30T15:27:10.610Z,101579.72
2022-11-30T15:29:41.220Z,101592.31
2022-11-30T15:32:16.208Z,101590.94
2022-11-30T15:34:54.943Z,101589.63
2022-11-30T15:37:39.593Z,101588.03
2022-11-30T15:40:09.332Z,101588.34
2022-11-30T15:42:40.647Z,101601.22
2022-11-30T15:45:21.483Z,101594.06
2022-11-30T15:47:48.286Z,101597.88
2022-11-30T15:50:26.711Z,101596.91
2022-11-30T15:52:55.712Z,101599.22
2022-11-30T15:55:56.107Z,101603.44
2022-11-30T15:59:00.049Z,101607.09
2022-11-30T16:01:27.378Z,101598.94
2022-11-30T16:03:58.096Z,101613.00
2022-11-30T16:06:50.933Z,101609.91
2022-11-30T16:09:17.762Z,101605.56
2022-11-30T16:11:44.568Z,101603.88
2022-11-30T16:14:16.774Z,101595.91
2022-11-30T16:16:43.723Z,101617.78
2022-11-30T16:19:10.410Z,101611.34
2022-11-30T16:21:37.028Z,101610.84
2022-11-30T16:24:03.679Z,101608.00
2022-11-30T16:26:50.143Z,101606.44
2022-11-30T16:29:16.754Z,101611.84
2022-11-30T16:31:43.230Z,101619.94
2022-11-30T16:34:11.746Z,101619.50
2022-11-30T16:36:38.936Z,101622.13
2022-11-30T16:39:05.777Z,101638.13
2022-11-30T16:41:34.753Z,101632.88
2022-11-30T16:44:01.208Z,101637.53
2022-11-30T16:46:29.385Z,101641.78
2022-11-30T16:48:56.460Z,101641.81
2022-11-30T16:51:27.217Z,101636.91
2022-11-30T16:53:54.180Z,101640.34
2022-11-30T16:56:21.210Z,101640.06
2022-11-30T16:58:48.237Z,101648.34
2022-11-30T17:01:34.804Z,101653.94
2022-11-30T17:04:11.986Z,101660.59
2022-11-30T17:06:38.470Z,101651.06
2022-11-30T17:09:04.929Z,101654.06
2022-11-30T17:11:34.801Z,101657.97
2022-11-30T17:14:01.299Z,101658.09
2022-11-30T17:16:27.805Z,101661.47
2022-11-30T17:18:54.498Z,101660.06
2022-11-30T17:21:28.682Z,101655.56
2022-11-30T17:23:55.482Z,101655.38
2022-11-30T17:26:21.982Z,101664.91
2022-11-30T17:28:48.446Z,101657.75
2022-11-30T17:31:15.144Z,101652.09
2022-11-30T17:33:47.765Z,101658.34
2022-11-30T17:36:16.025Z,101661.38
2022-11-30T17:38:43.973Z,101666.84
2022-11-30T17:41:18.943Z,101664.25
2022-11-30T17:43:46.317Z,101667.53
2022-11-30T17:46:18.414Z,101669.91
2022-11-30T17:48:45.272Z,101670.03
2022-11-30T17:51:12.460Z,101668.19
2022-11-30T17:53:40.244Z,101670.66
2022-11-30T17:56:08.405Z,101673.50
2022-11-30T17:58:43.016Z,101677.59
2022-11-30T18:01:24.915Z,101676.75
2022-11-30T18:03:52.245Z,101679.97
2022-11-30T18:06:19.348Z,101684.34
2022-11-30T18:08:46.047Z,101685.16
2022-11-30T18:11:15.949Z,101684.63
2022-11-30T18:13:42.846Z,101691.69
2022-11-30T18:16:15.231Z,101695.28
2022-11-30T18:18:47.317Z,101688.84
2022-11-30T18:21:17.070Z,101693.19
2022-11-30T18:23:43.522Z,101696.97
2022-11-30T18:26:15.572Z,101693.31
2022-11-30T18:28:42.641Z,101699.19
2022-11-30T18:31:09.579Z,101702.94
2022-11-30T18:33:36.971Z,101700.00
2022-11-30T18:36:07.193Z,101705.94
2022-11-30T18:38:37.976Z,101707.03
2022-11-30T18:41:05.691Z,101707.34
2022-11-30T18:43:33.490Z,101705.16
2022-11-30T18:46:08.403Z,101710.25
2022-11-30T18:48:36.037Z,101703.75
2022-11-30T18:51:13.783Z,101719.59
2022-11-30T18:53:41.011Z,101716.75
2022-11-30T18:56:13.190Z,101723.56
2022-11-30T18:58:40.926Z,101716.94
2022-11-30T19:01:09.458Z,101718.59
2022-11-30T19:03:37.351Z,101710.63
2022-11-30T19:06:05.556Z,101720.47
2022-11-30T19:08:32.137Z,101723.53
2022-11-30T19:11:06.694Z,101724.09
2022-11-30T19:13:33.704Z,101727.81
2022-11-30T19:16:05.512Z,101727.53
2022-11-30T19:18:32.933Z,101724.81
2022-11-30T19:21:00.147Z,101728.31
2022-11-30T19:23:26.859Z,101731.91
2022-11-30T19:25:58.691Z,101727.47
2022-11-30T19:28:25.135Z,101729.69
2022-11-30T19:30:51.568Z,101726.16
2022-11-30T19:33:18.087Z,101733.53
2022-11-30T19:35:44.526Z,101750.88
2022-11-30T19:38:10.960Z,101746.69
2022-11-30T19:40:37.989Z,101740.44
2022-11-30T19:43:04.751Z,101742.69
2022-11-30T19:45:31.237Z,101746.03
2022-11-30T19:47:57.637Z,101755.13
2022-11-30T19:50:24.423Z,101753.59
2022-11-30T19:52:50.958Z,101756.78
2022-11-30T19:55:17.594Z,101756.16
2022-11-30T19:57:44.751Z,101756.47
2022-11-30T20:00:12.408Z,101763.19
2022-11-30T20:02:38.941Z,101773.53
2022-11-30T20:05:05.926Z,101763.53
2022-11-30T20:07:32.443Z,101770.28
2022-11-30T20:09:59.000Z,101763.19
2022-11-30T20:12:25.465Z,101765.13
2022-11-30T20:14:52.149Z,101768.63
2022-11-30T20:17:18.873Z,101764.69
2022-11-30T20:19:45.353Z,101774.50
2022-11-30T20:22:11.779Z,101764.56
2022-11-30T20:24:38.222Z,101760.94
2022-11-30T20:27:04.835Z,101769.31
2022-11-30T20:29:31.413Z,101770.31
2022-11-30T20:31:58.080Z,101773.41
2022-11-30T20:34:28.489Z,101773.97
2022-11-30T20:36:57.727Z,101769.38
2022-11-30T20:39:24.176Z,101759.13
2022-11-30T20:41:50.634Z,101770.94
2022-11-30T20:44:17.052Z,101777.09
2022-11-30T20:46:43.757Z,101764.19
2022-11-30T20:49:17.921Z,101773.53
2022-11-30T20:51:45.057Z,101765.13
2022-11-30T20:54:12.713Z,101767.38
2022-11-30T20:56:39.754Z,101773.00
2022-11-30T20:59:09.394Z,101772.66
2022-11-30T21:01:36.274Z,101767.13
2022-11-30T21:04:02.972Z,101772.47
2022-11-30T21:06:30.308Z,101773.09
2022-11-30T21:08:57.301Z,101778.53
2022-11-30T21:11:24.362Z,101778.63
2022-11-30T21:13:51.228Z,101778.28
2022-11-30T21:16:27.245Z,101779.44
2022-11-30T21:18:55.108Z,101769.44
2022-11-30T21:21:24.222Z,101774.63
2022-11-30T21:23:51.754Z,101772.84
2022-11-30T21:26:33.468Z,101766.56
2022-11-30T21:29:06.883Z,101773.81
2022-11-30T21:31:33.998Z,101779.69
2022-11-30T21:34:01.032Z,101776.94
2022-11-30T21:36:28.142Z,101772.88
2022-11-30T21:39:05.588Z,101780.47
2022-11-30T21:41:38.153Z,101769.53
2022-11-30T21:44:05.884Z,101776.63
2022-11-30T21:46:33.210Z,101779.19
2022-11-30T21:48:59.995Z,101779.84
2022-11-30T21:51:28.146Z,101776.94
2022-11-30T21:54:00.491Z,101771.97
2022-11-30T21:56:35.832Z,101782.28
2022-11-30T21:59:04.997Z,101782.38
2022-11-30T22:01:37.320Z,101783.41
2022-11-30T22:04:06.227Z,101790.44
2022-11-30T22:06:35.027Z,101783.44
2022-11-30T22:09:07.828Z,101786.56
2022-11-30T22:11:39.551Z,101785.38
2022-11-30T22:14:07.954Z,101787.56
2022-11-30T22:16:36.415Z,101783.50
2022-11-30T22:19:04.563Z,101781.25
2022-11-30T22:21:31.161Z,101788.47
2022-11-30T22:23:58.791Z,101790.50
2022-11-30T22:26:29.256Z,101782.59
2022-11-30T22:29:06.797Z,101782.91
2022-11-30T22:31:39.220Z,101784.66
2022-11-30T22:34:06.354Z,101785.41
2022-11-30T22:36:34.474Z,101786.75
2022-11-30T22:39:11.889Z,101787.94
2022-11-30T22:41:39.767Z,101783.78
2022-11-30T22:44:06.686Z,101783.44
2022-11-30T22:46:37.223Z,101786.09
2022-11-30T22:49:06.939Z,101786.69
2022-11-30T22:51:34.770Z,101791.56
2022-11-30T22:54:02.093Z,101790.00
2022-11-30T22:56:31.908Z,101795.56
2022-11-30T22:59:00.683Z,101792.22
2022-11-30T23:01:33.203Z,101790.56
2022-11-30T23:04:11.618Z,101785.16
2022-11-30T23:06:40.304Z,101791.56
2022-11-30T23:09:10.509Z,101792.72
2022-11-30T23:11:37.171Z,101793.25
2022-11-30T23:14:06.118Z,101777.19
2022-11-30T23:16:32.626Z,101792.34
2022-11-30T23:19:00.234Z,101785.25
2022-11-30T23:21:30.409Z,101793.94
2022-11-30T23:24:00.419Z,101784.72
2022-11-30T23:26:29.779Z,101788.28
2022-11-30T23:28:59.920Z,101785.47
2022-11-30T23:31:32.564Z,101791.50
2022-11-30T23:34:10.996Z,101792.63
2022-11-30T23:36:37.681Z,101795.81
2022-11-30T23:39:15.536Z,101789.38
2022-11-30T23:41:42.616Z,101786.00
2022-11-30T23:44:10.090Z,101798.28
2022-11-30T23:46:37.486Z,101801.72
2022-11-30T23:49:04.216Z,101806.47
2022-11-30T23:51:30.981Z,101799.75
2022-11-30T23:53:57.388Z,101799.59
2022-11-30T23:56:24.556Z,101797.09
2022-11-30T23:58:51.632Z,101799.19
